Time;durP1;ratioP1;P1;durP2;ratioP2;P2;SDS_P1;SDS_P2;PMS_P1;PMS_P2;Temp;Humidity;BMP_temperature;BMP_pressure;BME280_temperature;BME280_humidity;BME280_pressure;Samples;Min_cycle;Max_cycle;Signal;HPM_P1;HPM_P2
2022/12/25 00:02:13;;;;;;;59.00;24.10;;;6.20;99.90;;;;;;5071436;28;20085;-64
2022/12/25 00:04:39;;;;;;;74.25;25.90;;;6.20;99.90;;;;;;5070624;28;20035;-64
2022/12/25 00:07:05;;;;;;;81.65;27.80;;;6.20;99.90;;;;;;5067792;28;20036;-64
2022/12/25 00:09:30;;;;;;;66.40;25.20;;;6.20;99.90;;;;;;5061442;28;20130;-64
2022/12/25 00:11:56;;;;;;;69.60;25.70;;;6.20;99.90;;;;;;5068621;28;20075;-64
2022/12/25 00:14:22;;;;;;;73.75;25.08;;;6.20;99.90;;;;;;5054277;28;20039;-64
2022/12/25 00:16:47;;;;;;;67.40;24.10;;;6.00;99.90;;;;;;5063101;28;20090;-64
2022/12/25 00:19:13;;;;;;;63.45;24.10;;;6.30;99.90;;;;;;5040825;28;20608;-64
2022/12/25 00:21:39;;;;;;;65.63;24.20;;;6.30;99.90;;;;;;5062631;28;20052;-64
2022/12/25 00:24:05;;;;;;;57.05;21.55;;;6.30;99.90;;;;;;5054227;28;20032;-64
2022/12/25 00:26:30;;;;;;;57.42;21.02;;;6.20;99.90;;;;;;5062471;28;20072;-63
2022/12/25 00:28:57;;;;;;;59.58;21.95;;;6.30;99.90;;;;;;5023776;28;20063;-64
2022/12/25 00:31:24;;;;;;;68.75;22.67;;;6.30;99.90;;;;;;5045412;28;20075;-64
2022/12/25 00:33:51;;;;;;;51.28;20.40;;;6.20;99.90;;;;;;5054495;28;20036;-64
2022/12/25 00:36:18;;;;;;;68.80;22.73;;;6.20;99.90;;;;;;5061756;28;20048;-64
2022/12/25 00:38:45;;;;;;;53.28;21.00;;;6.20;99.90;;;;;;5047072;28;20052;-63
2022/12/25 00:41:17;;;;;;;50.53;20.83;;;6.20;99.90;;;;;;5046214;28;20066;-64
2022/12/25 00:43:43;;;;;;;62.25;20.48;;;6.20;99.90;;;;;;5076720;28;20518;-64
2022/12/25 00:46:10;;;;;;;59.25;20.30;;;6.20;99.90;;;;;;5074274;22;20287;-56
2022/12/25 00:48:36;;;;;;;60.38;21.30;;;6.20;99.90;;;;;;5066247;28;20115;-57
2022/12/25 00:51:04;;;;;;;72.97;25.05;;;6.20;99.90;;;;;;5065866;28;20115;-57
2022/12/25 00:53:30;;;;;;;71.75;22.77;;;6.10;99.90;;;;;;5053027;28;20072;-55
2022/12/25 00:55:59;;;;;;;64.00;19.90;;;6.20;99.90;;;;;;5059324;28;20429;-57
2022/12/25 00:58:27;;;;;;;60.92;20.33;;;6.10;99.90;;;;;;5032589;28;20147;-56
2022/12/25 01:00:53;;;;;;;50.25;19.52;;;6.10;99.90;;;;;;5039145;28;20125;-57
2022/12/25 01:03:19;;;;;;;60.50;20.92;;;6.10;99.90;;;;;;5023664;28;20131;-57
2022/12/25 01:05:55;;;;;;;58.63;21.70;;;6.10;99.90;;;;;;5042699;28;20128;-57
2022/12/25 01:08:21;;;;;;;65.47;20.65;;;6.10;99.90;;;;;;5024242;28;20127;-54
2022/12/25 01:10:53;;;;;;;57.80;20.38;;;6.10;99.90;;;;;;5043924;28;20108;-55
2022/12/25 01:13:19;;;;;;;65.43;21.13;;;6.10;99.90;;;;;;5028749;28;20038;-57
2022/12/25 01:15:44;;;;;;;58.55;21.60;;;6.10;99.90;;;;;;5044487;28;20052;-55
2022/12/25 01:18:10;;;;;;;63.50;22.02;;;6.10;99.90;;;;;;5041829;28;20036;-56
2022/12/25 01:20:36;;;;;;;72.95;21.70;;;6.10;99.90;;;;;;5035652;28;20424;-55
2022/12/25 01:23:01;;;;;;;60.63;20.90;;;6.20;99.90;;;;;;5023216;28;21537;-56
2022/12/25 01:25:27;;;;;;;61.40;22.50;;;6.20;99.90;;;;;;5035023;28;20051;-56
2022/12/25 01:27:53;;;;;;;65.32;22.33;;;6.20;99.90;;;;;;5040073;28;20041;-56
2022/12/25 01:30:18;;;;;;;66.35;22.38;;;6.20;99.90;;;;;;5033938;28;20416;-57
2022/12/25 01:32:44;;;;;;;70.55;24.05;;;6.20;99.90;;;;;;5038523;28;20047;-57
2022/12/25 01:35:10;;;;;;;64.50;23.08;;;6.20;99.90;;;;;;5035590;28;20041;-57
2022/12/25 01:37:36;;;;;;;69.25;23.17;;;6.20;99.90;;;;;;5050145;28;20074;-54
2022/12/25 01:40:03;;;;;;;69.13;22.75;;;6.30;99.90;;;;;;5046222;28;20032;-56
2022/12/25 01:42:29;;;;;;;70.95;22.73;;;6.30;99.90;;;;;;5036873;28;20040;-53
2022/12/25 01:45:31;;;;;;;63.25;23.45;;;6.20;99.90;;;;;;5034944;28;20110;-57
2022/12/25 01:47:58;;;;;;;62.80;21.17;;;6.30;99.90;;;;;;5023432;28;20057;-56
2022/12/25 01:50:23;;;;;;;59.80;20.75;;;6.30;99.90;;;;;;5035392;28;20568;-57
2022/12/25 01:52:51;;;;;;;58.17;22.77;;;6.30;99.90;;;;;;5038308;28;20140;-56
2022/12/25 01:55:16;;;;;;;57.17;20.67;;;6.30;99.90;;;;;;5026013;28;20438;-56
2022/12/25 01:57:43;;;;;;;63.08;22.73;;;6.40;99.90;;;;;;5024950;28;20025;-54
2022/12/25 02:00:11;;;;;;;56.03;21.40;;;6.40;99.90;;;;;;5044822;28;20049;-55
2022/12/25 02:02:37;;;;;;;64.90;23.85;;;6.50;99.90;;;;;;5035083;28;20037;-56
2022/12/25 02:05:09;;;;;;;59.92;22.20;;;6.50;99.90;;;;;;5035302;28;20121;-54
2022/12/25 02:07:36;;;;;;;66.03;23.45;;;6.60;99.90;;;;;;5034818;28;20098;-56
2022/12/25 02:10:03;;;;;;;57.90;22.65;;;6.70;99.90;;;;;;5039724;28;20052;-57
2022/12/25 02:12:32;;;;;;;64.45;21.38;;;6.70;99.90;;;;;;5036907;28;20060;-56
2022/12/25 02:15:06;;;;;;;66.20;25.10;;;6.80;99.90;;;;;;5036159;28;20063;-56
2022/12/25 02:18:00;;;;;;;68.63;23.98;;;6.90;99.90;;;;;;5034309;28;20033;-56
2022/12/25 02:20:56;;;;;;;62.67;25.35;;;7.00;99.90;;;;;;5030941;28;20076;-57
2022/12/25 02:23:39;;;;;;;65.60;24.65;;;7.00;99.90;;;;;;5043424;28;20043;-56
2022/12/25 02:26:26;;;;;;;68.95;24.58;;;7.10;99.90;;;;;;5052850;28;20091;-56
2022/12/25 02:29:11;;;;;;;60.42;24.95;;;7.20;99.90;;;;;;5045246;28;20064;-57
2022/12/25 02:32:01;;;;;;;61.70;24.75;;;7.20;99.90;;;;;;5035530;28;20056;-56
2022/12/25 02:34:36;;;;;;;68.43;26.77;;;7.20;99.90;;;;;;5036007;28;20124;-55
2022/12/25 02:37:25;;;;;;;62.80;25.10;;;7.30;99.90;;;;;;5038159;28;20116;-57
2022/12/25 02:40:18;;;;;;;66.28;25.50;;;7.30;99.90;;;;;;5041835;28;20045;-55
2022/12/25 03:06:47;;;;;;;64.90;26.08;;;7.50;99.90;;;;;;5042307;28;20045;-57
2022/12/25 03:12:01;;;;;;;74.53;28.65;;;7.50;99.90;;;;;;5027611;28;20086;-57
2022/12/25 03:17:12;;;;;;;66.90;27.85;;;7.60;99.90;;;;;;5040065;28;19928;-57
2022/12/25 03:28:01;;;;;;;71.97;28.20;;;7.60;99.90;;;;;;5041456;28;20049;-57
2022/12/25 04:38:11;;;;;;;77.15;31.15;;;8.20;99.90;;;;;;5034645;28;20797;-57
2022/12/25 04:40:37;;;;;;;94.00;34.47;;;8.20;99.90;;;;;;5021692;28;20180;-57
2022/12/25 04:43:02;;;;;;;82.57;32.80;;;8.20;99.90;;;;;;5032721;28;20032;-56
2022/12/25 04:45:28;;;;;;;94.20;35.70;;;8.20;99.90;;;;;;5035867;28;20486;-58
2022/12/25 04:47:54;;;;;;;89.75;32.95;;;8.20;99.90;;;;;;5037944;28;20142;-54
2022/12/25 04:50:19;;;;;;;79.78;31.70;;;8.30;99.90;;;;;;5040978;28;20037;-56
2022/12/25 04:52:45;;;;;;;85.90;32.97;;;8.20;99.90;;;;;;5041679;28;20510;-56
2022/12/25 04:55:11;;;;;;;91.00;33.00;;;8.20;99.90;;;;;;5043596;28;20168;-56
2022/12/25 04:57:36;;;;;;;82.40;33.40;;;8.30;99.90;;;;;;5050217;28;20052;-55
2022/12/25 05:00:04;;;;;;;80.03;31.48;;;8.30;99.90;;;;;;5040864;28;20149;-57
2022/12/25 05:02:30;;;;;;;85.05;32.53;;;8.30;99.90;;;;;;5043857;28;20135;-56
2022/12/25 05:04:56;;;;;;;80.88;30.48;;;8.30;99.90;;;;;;5046130;28;20036;-57
2022/12/25 05:07:22;;;;;;;78.60;32.10;;;8.30;99.90;;;;;;5047452;28;20395;-56
2022/12/25 05:09:47;;;;;;;86.03;31.80;;;8.30;99.90;;;;;;5044560;28;20076;-57
2022/12/25 05:12:13;;;;;;;83.53;30.85;;;8.20;99.90;;;;;;5047129;28;20071;-56
2022/12/25 05:14:40;;;;;;;73.22;30.42;;;8.30;99.90;;;;;;5047278;28;20048;-57
2022/12/25 05:17:06;;;;;;;74.80;31.33;;;8.30;99.90;;;;;;5040857;28;20045;-55
2022/12/25 05:19:32;;;;;;;69.60;30.65;;;8.20;99.90;;;;;;5043783;28;20045;-56
2022/12/25 05:21:58;;;;;;;74.30;29.08;;;8.30;99.90;;;;;;5039971;28;20033;-57
2022/12/25 05:24:27;;;;;;;79.45;31.65;;;8.30;99.90;;;;;;5036086;28;20395;-57
2022/12/25 05:26:53;;;;;;;78.90;30.95;;;8.30;99.90;;;;;;5022245;28;20052;-58
2022/12/25 05:29:19;;;;;;;80.70;31.92;;;8.20;99.90;;;;;;5049737;28;20392;-56
2022/12/25 05:31:45;;;;;;;73.45;30.98;;;8.30;99.90;;;;;;5041502;28;20053;-57
2022/12/25 05:34:10;;;;;;;78.82;31.20;;;8.30;99.90;;;;;;5042321;28;20132;-56
2022/12/25 05:36:37;;;;;;;85.53;32.42;;;8.30;99.90;;;;;;5041101;28;20395;-55
2022/12/25 05:39:03;;;;;;;79.40;33.00;;;8.30;99.90;;;;;;5042460;28;20044;-56
2022/12/25 05:41:29;;;;;;;76.55;33.80;;;8.30;99.90;;;;;;5046219;28;20033;-55
2022/12/25 05:43:55;;;;;;;86.80;33.15;;;8.30;99.90;;;;;;5035078;28;20029;-56
2022/12/25 05:46:20;;;;;;;81.05;33.75;;;8.30;99.90;;;;;;5039658;28;20283;-56
2022/12/25 05:48:46;;;;;;;85.60;32.70;;;8.30;99.90;;;;;;5040575;28;20167;-57
2022/12/25 05:51:13;;;;;;;80.20;32.67;;;8.30;99.90;;;;;;5034949;28;20021;-55
2022/12/25 05:53:41;;;;;;;89.65;33.95;;;8.30;99.90;;;;;;5032965;28;20128;-58
2022/12/25 05:56:08;;;;;;;80.32;33.28;;;8.40;99.90;;;;;;5035699;28;20033;-58
2022/12/25 05:58:36;;;;;;;77.50;33.17;;;8.40;99.90;;;;;;5032927;28;20137;-57
2022/12/25 06:01:02;;;;;;;80.05;33.15;;;8.40;99.90;;;;;;5042765;28;20034;-57
2022/12/25 06:03:28;;;;;;;73.20;32.63;;;8.40;99.90;;;;;;5039525;28;20085;-54
2022/12/25 06:05:54;;;;;;;82.55;33.50;;;8.40;99.90;;;;;;5035909;28;20299;-57
2022/12/25 06:08:20;;;;;;;84.95;33.83;;;8.50;99.90;;;;;;5033500;28;20295;-54
2022/12/25 06:10:46;;;;;;;78.57;32.70;;;8.40;99.90;;;;;;5041175;28;20048;-56
2022/12/25 06:13:12;;;;;;;82.00;33.15;;;8.50;99.90;;;;;;5044037;28;20036;-54
2022/12/25 06:15:39;;;;;;;80.30;32.67;;;8.50;99.90;;;;;;5026770;28;20134;-56
2022/12/25 06:18:05;;;;;;;83.55;34.10;;;8.50;99.90;;;;;;5035462;28;20045;-56
2022/12/25 06:20:30;;;;;;;92.75;35.50;;;8.50;99.90;;;;;;5036447;28;20528;-56
2022/12/25 06:22:56;;;;;;;83.22;34.47;;;8.50;99.90;;;;;;5029369;28;20033;-54
2022/12/25 06:25:22;;;;;;;72.30;31.38;;;8.50;99.90;;;;;;5035108;28;20084;-57
2022/12/25 06:27:47;;;;;;;76.72;32.22;;;8.50;99.90;;;;;;5036015;28;20166;-57
2022/12/25 06:30:13;;;;;;;82.75;32.30;;;8.50;99.90;;;;;;5034889;28;20482;-57
2022/12/25 06:32:39;;;;;;;75.75;31.88;;;8.60;99.90;;;;;;5033762;28;20048;-57
2022/12/25 06:35:05;;;;;;;83.57;33.25;;;8.50;99.90;;;;;;5055501;28;20407;-56
2022/12/25 06:37:31;;;;;;;75.07;32.13;;;8.60;99.90;;;;;;5038992;28;20179;-57
2022/12/25 06:39:56;;;;;;;72.85;31.48;;;8.60;99.90;;;;;;5037306;28;20485;-56
2022/12/25 06:42:22;;;;;;;76.18;32.88;;;8.60;99.90;;;;;;5033327;28;20036;-57
2022/12/25 06:44:49;;;;;;;77.68;32.35;;;8.70;99.90;;;;;;5034245;28;20110;-56
2022/12/25 06:47:15;;;;;;;77.75;31.90;;;8.70;99.90;;;;;;5024766;28;21567;-57
2022/12/25 06:49:41;;;;;;;70.70;31.55;;;8.70;99.90;;;;;;5029897;28;22023;-54
2022/12/25 06:52:07;;;;;;;70.97;34.17;;;8.70;99.90;;;;;;5044025;22;20076;-59
2022/12/25 06:54:33;;;;;;;74.90;32.35;;;8.70;99.90;;;;;;5041382;28;20047;-57
2022/12/25 06:56:58;;;;;;;74.40;31.60;;;8.70;99.90;;;;;;5041696;28;20085;-56
2022/12/25 06:59:24;;;;;;;71.78;31.50;;;8.70;99.90;;;;;;5058174;28;20517;-57
2022/12/25 07:01:53;;;;;;;71.82;29.15;;;8.70;99.90;;;;;;5055195;28;20086;-58
2022/12/25 07:04:30;;;;;;;68.65;30.42;;;8.70;99.90;;;;;;5086071;28;20473;-59
2022/12/25 07:07:00;;;;;;;69.88;29.98;;;8.70;99.90;;;;;;5044069;28;20044;-58
2022/12/25 07:09:26;;;;;;;63.17;28.90;;;8.80;99.90;;;;;;5061134;28;20064;-57
2022/12/25 07:11:52;;;;;;;73.57;31.10;;;8.80;99.90;;;;;;5051017;28;20176;-59
2022/12/25 07:14:21;;;;;;;68.13;30.58;;;8.80;99.90;;;;;;5061934;28;20047;-57
2022/12/25 07:16:47;;;;;;;68.93;30.05;;;8.80;99.90;;;;;;5059213;28;20049;-59
2022/12/25 07:19:13;;;;;;;65.70;28.60;;;8.80;99.90;;;;;;5039326;28;20117;-59
2022/12/25 07:21:38;;;;;;;68.20;29.08;;;8.80;99.90;;;;;;5057981;28;20059;-58
2022/12/25 07:24:04;;;;;;;71.05;29.95;;;8.80;99.90;;;;;;5041397;28;20032;-60
2022/12/25 07:26:30;;;;;;;68.85;30.30;;;8.80;99.90;;;;;;5054107;28;20161;-59
2022/12/25 07:28:56;;;;;;;66.28;29.45;;;8.80;99.90;;;;;;5035179;28;20036;-58
2022/12/25 07:31:21;;;;;;;71.15;30.63;;;8.80;99.90;;;;;;5041987;28;20036;-57
2022/12/25 07:33:47;;;;;;;70.75;29.48;;;8.80;99.90;;;;;;5090196;28;20032;-59
2022/12/25 07:36:14;;;;;;;70.78;30.27;;;8.80;99.90;;;;;;5070709;28;20036;-59
2022/12/25 07:38:43;;;;;;;66.28;29.25;;;8.80;99.90;;;;;;5071280;28;20048;-60
2022/12/25 07:41:11;;;;;;;64.18;28.27;;;8.80;99.90;;;;;;5071377;28;20406;-58
2022/12/25 07:43:37;;;;;;;58.53;28.33;;;8.80;99.90;;;;;;5065378;28;20050;-59
2022/12/25 07:46:03;;;;;;;58.65;27.45;;;8.80;99.90;;;;;;5071315;28;20398;-60
2022/12/25 07:48:29;;;;;;;64.15;27.60;;;8.80;99.90;;;;;;5082357;28;20051;-57
2022/12/25 07:51:03;;;;;;;49.97;25.30;;;8.80;99.90;;;;;;5070950;28;20040;-58
2022/12/25 07:53:30;;;;;;;55.42;25.63;;;8.90;99.90;;;;;;5068427;28;20087;-59
2022/12/25 07:56:15;;;;;;;52.78;25.45;;;8.90;99.90;;;;;;5074183;28;20040;-57
2022/12/25 07:58:41;;;;;;;54.97;24.25;;;8.90;99.90;;;;;;5063784;28;20041;-59
2022/12/25 08:01:15;;;;;;;50.92;24.38;;;8.80;99.90;;;;;;5059064;28;20036;-58
2022/12/25 08:03:40;;;;;;;;;;;8.90;99.90;;;;;;5057627;28;20264;-58
2022/12/25 08:06:08;;;;;;;48.03;23.05;;;8.80;99.90;;;;;;5073447;28;19923;-59
2022/12/25 08:08:35;;;;;;;47.03;22.33;;;8.90;99.90;;;;;;5067568;28;20035;-59
2022/12/25 08:11:01;;;;;;;45.70;23.02;;;8.80;99.90;;;;;;5070659;28;20039;-59
2022/12/25 08:13:30;;;;;;;57.42;22.60;;;8.90;99.90;;;;;;5071106;28;20043;-59
2022/12/25 08:15:58;;;;;;;53.38;23.50;;;8.90;99.90;;;;;;5052389;28;20048;-58
2022/12/25 08:18:23;;;;;;;44.28;22.42;;;8.90;99.90;;;;;;5069283;28;20116;-58
2022/12/25 08:20:49;;;;;;;50.28;22.73;;;8.90;99.90;;;;;;5078709;28;20469;-58
2022/12/25 08:23:15;;;;;;;47.05;21.75;;;8.90;99.90;;;;;;5067615;28;20042;-59
2022/12/25 08:25:40;;;;;;;47.65;20.83;;;8.90;99.90;;;;;;5051300;28;20123;-57
2022/12/25 08:28:06;;;;;;;45.55;21.05;;;8.90;99.90;;;;;;5070725;28;20134;-58
2022/12/25 08:30:32;;;;;;;39.50;20.70;;;8.90;99.90;;;;;;5062754;28;20471;-59
2022/12/25 08:32:58;;;;;;;37.15;19.58;;;8.90;99.90;;;;;;5062284;28;20086;-59
2022/12/25 08:35:25;;;;;;;42.10;19.95;;;8.90;99.90;;;;;;5067311;28;20367;-59
2022/12/25 08:37:51;;;;;;;42.90;20.15;;;8.90;99.90;;;;;;5093031;28;20533;-58
2022/12/25 08:40:17;;;;;;;50.45;20.27;;;8.90;99.90;;;;;;5071027;28;20124;-59
2022/12/25 08:42:43;;;;;;;35.13;18.20;;;8.90;99.90;;;;;;5068925;28;20518;-57
2022/12/25 08:45:09;;;;;;;41.60;19.38;;;8.90;99.90;;;;;;5070216;28;20054;-60
2022/12/25 08:47:35;;;;;;;40.38;18.83;;;8.80;99.90;;;;;;5068916;28;20125;-59
2022/12/25 08:50:00;;;;;;;39.78;18.85;;;8.80;99.90;;;;;;5070067;28;20494;-59
2022/12/25 08:52:27;;;;;;;48.78;17.85;;;8.80;99.90;;;;;;5029779;28;20055;-58
2022/12/25 08:54:53;;;;;;;44.83;19.23;;;8.80;99.90;;;;;;5069672;28;20044;-59
2022/12/25 08:57:19;;;;;;;39.45;19.17;;;8.80;99.90;;;;;;5072807;28;20044;-59
2022/12/25 08:59:45;;;;;;;42.55;18.70;;;8.80;99.90;;;;;;5070209;28;20441;-59
2022/12/25 09:02:11;;;;;;;42.65;18.58;;;8.80;99.90;;;;;;5051067;28;20051;-59
2022/12/25 09:04:37;;;;;;;37.22;17.25;;;8.80;99.90;;;;;;5070091;28;20391;-59
2022/12/25 09:07:03;;;;;;;41.40;18.52;;;8.80;99.90;;;;;;5069722;28;20130;-59
2022/12/25 09:09:28;;;;;;;40.35;18.65;;;8.80;99.90;;;;;;5091434;28;20088;-57
2022/12/25 09:11:54;;;;;;;36.53;17.00;;;8.80;99.90;;;;;;5055241;28;20036;-59
2022/12/25 09:14:20;;;;;;;32.90;16.35;;;8.80;99.90;;;;;;5050618;28;20071;-59
2022/12/25 09:16:48;;;;;;;30.48;15.80;;;8.80;99.90;;;;;;5069858;28;20036;-59
2022/12/25 09:19:13;;;;;;;36.65;16.70;;;8.80;99.90;;;;;;5063766;28;20109;-59
2022/12/25 09:21:39;;;;;;;35.67;17.90;;;8.80;99.90;;;;;;5068526;28;20486;-57
2022/12/25 09:24:05;;;;;;;35.08;16.80;;;8.80;99.90;;;;;;5066999;28;20035;-59
2022/12/25 09:26:31;;;;;;;33.28;16.50;;;8.80;99.90;;;;;;5063781;28;20036;-59
2022/12/25 09:28:57;;;;;;;33.85;16.58;;;8.90;99.90;;;;;;5070170;28;20044;-59
2022/12/25 09:31:23;;;;;;;34.17;16.45;;;8.90;99.90;;;;;;5074786;28;20525;-59
2022/12/25 09:33:49;;;;;;;33.72;16.85;;;8.90;99.90;;;;;;5069493;28;20097;-59
2022/12/25 09:36:15;;;;;;;39.60;17.42;;;8.90;99.90;;;;;;5068834;28;20067;-57
2022/12/25 09:38:41;;;;;;;30.58;16.23;;;8.90;99.90;;;;;;5069304;28;20507;-60
2022/12/25 09:41:25;;;;;;;31.90;16.85;;;8.90;99.90;;;;;;5051515;28;20099;-57
2022/12/25 09:44:11;;;;;;;;;;;8.90;99.90;;;;;;5068866;28;20042;-59
2022/12/25 09:46:41;;;;;;;38.90;16.27;;;8.90;99.90;;;;;;5067024;28;19926;-58
2022/12/25 09:49:46;;;;;;;35.30;17.77;;;8.90;99.90;;;;;;5067207;28;20043;-58
2022/12/25 09:52:17;;;;;;;32.88;15.93;;;8.90;99.90;;;;;;5087339;28;20044;-59
2022/12/25 09:54:53;;;;;;;36.17;17.17;;;8.90;99.90;;;;;;5070395;28;20704;-59
2022/12/25 09:57:19;;;;;;;33.42;17.23;;;8.90;99.90;;;;;;5066065;28;20537;-59
2022/12/25 09:59:46;;;;;;;32.35;17.63;;;8.90;99.90;;;;;;5063524;28;20035;-57
2022/12/25 10:02:30;;;;;;;36.55;15.80;;;8.90;99.90;;;;;;5059798;28;20044;-58
2022/12/25 10:05:34;;;;;;;30.02;16.98;;;8.90;99.90;;;;;;5040618;28;20104;-60
2022/12/25 10:08:20;;;;;;;33.55;16.52;;;8.90;99.90;;;;;;5035735;28;20056;-60
2022/12/25 10:10:50;;;;;;;35.72;16.38;;;8.90;99.90;;;;;;5022636;28;20043;-59
2022/12/25 10:13:38;;;;;;;30.88;16.35;;;9.00;99.90;;;;;;5045424;28;20190;-60
2022/12/25 10:16:17;;;;;;;29.63;16.00;;;9.00;99.90;;;;;;5030237;28;20047;-59
2022/12/25 10:19:14;;;;;;;29.35;15.88;;;8.90;99.90;;;;;;5044089;28;20093;-60
2022/12/25 10:21:40;;;;;;;30.33;15.77;;;9.00;99.90;;;;;;5044636;28;20363;-59
2022/12/25 10:24:44;;;;;;;27.75;15.20;;;9.00;99.90;;;;;;5038839;28;20615;-59
2022/12/25 10:27:24;;;;;;;28.80;16.38;;;9.00;99.90;;;;;;4997133;28;20066;-60
2022/12/25 10:29:53;;;;;;;30.45;16.27;;;9.00;99.90;;;;;;5056320;28;20157;-57
2022/12/25 10:32:19;;;;;;;25.90;15.23;;;9.00;99.90;;;;;;5053165;28;20051;-59
2022/12/25 10:34:48;;;;;;;29.85;15.45;;;9.00;99.90;;;;;;5075966;28;20044;-60
2022/12/25 10:37:14;;;;;;;24.75;13.93;;;9.00;99.90;;;;;;5064231;28;20116;-58
2022/12/25 10:39:42;;;;;;;27.88;14.52;;;9.00;99.90;;;;;;5054025;28;20047;-59
2022/12/25 10:42:07;;;;;;;27.83;13.73;;;9.10;99.90;;;;;;5062952;28;20075;-59
2022/12/25 10:44:33;;;;;;;25.27;14.50;;;9.10;99.90;;;;;;5073853;28;20067;-57
2022/12/25 10:47:01;;;;;;;24.63;14.13;;;9.10;99.90;;;;;;5052915;28;20055;-59
2022/12/25 10:49:34;;;;;;;31.80;14.57;;;9.10;99.90;;;;;;5065958;28;20051;-57
2022/12/25 10:52:01;;;;;;;23.67;12.68;;;9.10;99.90;;;;;;5067391;28;20048;-59
2022/12/25 10:54:34;;;;;;;23.75;13.68;;;9.10;99.90;;;;;;5050191;28;20040;-57
2022/12/25 10:57:15;;;;;;;25.00;13.05;;;9.10;99.90;;;;;;5079750;28;20138;-57
2022/12/25 10:59:49;;;;;;;20.30;12.85;;;9.10;99.90;;;;;;5054037;28;20048;-58
2022/12/25 11:02:28;;;;;;;;;;;9.20;99.90;;;;;;5045549;28;20048;-57
2022/12/25 11:05:13;;;;;;;21.50;12.48;;;9.20;99.90;;;;;;5063706;28;20328;-59
2022/12/25 11:07:54;;;;;;;24.77;12.32;;;9.20;99.90;;;;;;5059116;28;20446;-58
2022/12/25 11:10:24;;;;;;;19.83;11.95;;;9.20;99.90;;;;;;5070753;28;20052;-59
2022/12/25 11:12:51;;;;;;;23.85;12.95;;;9.20;99.90;;;;;;5070055;28;20399;-57
2022/12/25 11:15:32;;;;;;;24.48;12.35;;;9.20;99.90;;;;;;5047983;28;20131;-57
2022/12/25 11:17:58;;;;;;;24.80;11.82;;;9.30;99.90;;;;;;5062025;28;20514;-59
2022/12/25 11:20:24;;;;;;;22.23;12.35;;;9.30;99.90;;;;;;5064751;28;20048;-59
2022/12/25 11:22:50;;;;;;;22.60;11.70;;;9.30;99.90;;;;;;5076158;28;20039;-59
2022/12/25 11:25:25;;;;;;;18.98;11.07;;;9.30;99.90;;;;;;5058623;28;20036;-59
2022/12/25 11:28:04;;;;;;;21.02;12.25;;;9.30;99.90;;;;;;5060794;28;20044;-57
2022/12/25 11:30:32;;;;;;;17.35;11.13;;;9.40;99.90;;;;;;5058686;28;20131;-59
2022/12/25 11:33:03;;;;;;;22.23;13.25;;;9.40;99.90;;;;;;5045349;28;20123;-59
2022/12/25 11:35:36;;;;;;;24.88;12.40;;;9.40;99.90;;;;;;5069189;28;20075;-59
2022/12/25 11:38:02;;;;;;;18.52;11.05;;;9.40;99.90;;;;;;5080259;28;20517;-57
2022/12/25 11:40:51;;;;;;;16.48;10.38;;;9.40;99.90;;;;;;5062814;28;20122;-58
2022/12/25 11:43:27;;;;;;;19.00;11.63;;;9.40;99.90;;;;;;5063860;28;20051;-58
2022/12/25 11:46:21;;;;;;;19.67;11.20;;;9.40;99.90;;;;;;5064349;28;20079;-59
2022/12/25 11:49:12;;;;;;;16.40;10.40;;;9.40;99.90;;;;;;5081217;28;20079;-58
2022/12/25 11:51:42;;;;;;;21.13;11.63;;;9.40;99.90;;;;;;5045294;28;20237;-59
2022/12/25 11:54:17;;;;;;;17.63;10.48;;;9.40;99.90;;;;;;5064574;28;20150;-59
2022/12/25 11:56:42;;;;;;;20.45;11.00;;;9.40;99.90;;;;;;5059319;28;20515;-60
2022/12/25 11:59:17;;;;;;;16.77;10.13;;;9.40;99.90;;;;;;5048976;28;20039;-57
2022/12/25 12:01:54;;;;;;;14.40;9.95;;;9.40;99.90;;;;;;5072006;28;20032;-59
2022/12/25 12:04:29;;;;;;;19.02;10.57;;;9.40;99.90;;;;;;5061648;28;20368;-59
2022/12/25 12:07:15;;;;;;;19.45;9.82;;;9.40;99.90;;;;;;5066113;28;20052;-60
2022/12/25 12:10:16;;;;;;;17.77;10.98;;;9.40;99.90;;;;;;5062135;28;20044;-59
2022/12/25 12:13:06;;;;;;;18.27;10.73;;;9.40;99.90;;;;;;5065637;28;20074;-59
2022/12/25 12:15:47;;;;;;;15.93;9.98;;;9.40;99.90;;;;;;5061066;28;20119;-60
2022/12/25 12:18:28;;;;;;;17.30;9.82;;;9.40;99.90;;;;;;5078243;28;20511;-59
2022/12/25 12:21:17;;;;;;;16.60;10.48;;;9.50;99.90;;;;;;5061783;28;20042;-59
2022/12/25 12:24:10;;;;;;;20.90;10.38;;;9.50;99.90;;;;;;5038761;28;20399;-59
2022/12/25 12:26:39;;;;;;;17.25;10.18;;;9.50;99.90;;;;;;5057271;28;20047;-59
2022/12/25 12:29:20;;;;;;;25.38;11.82;;;9.50;99.90;;;;;;5045556;28;20474;-58
2022/12/25 12:31:48;;;;;;;18.30;11.75;;;9.50;99.90;;;;;;5058155;28;20041;-59
2022/12/25 12:34:25;;;;;;;16.73;10.10;;;9.50;99.90;;;;;;5050205;28;20085;-58
2022/12/25 12:36:59;;;;;;;17.45;10.48;;;9.50;99.90;;;;;;5040643;28;20036;-58
2022/12/25 12:39:30;;;;;;;19.85;10.60;;;9.50;99.90;;;;;;5047812;28;20047;-59
2022/12/25 12:41:56;;;;;;;23.55;12.15;;;9.50;99.90;;;;;;5065373;28;20036;-58
2022/12/25 12:44:33;;;;;;;22.58;11.00;;;9.50;99.90;;;;;;5062986;28;20028;-59
2022/12/25 12:46:59;;;;;;;20.73;11.02;;;9.50;99.90;;;;;;5057529;28;20048;-58
2022/12/25 12:49:27;;;;;;;18.15;11.00;;;9.50;99.90;;;;;;5054572;28;20055;-59
2022/12/25 12:52:25;;;;;;;20.23;10.40;;;9.50;99.90;;;;;;5045475;28;20047;-58
2022/12/25 12:55:00;;;;;;;19.60;11.68;;;9.50;99.90;;;;;;5027156;28;20487;-59
2022/12/25 12:57:31;;;;;;;18.80;10.95;;;9.50;99.90;;;;;;5058766;28;20046;-59
2022/12/25 13:00:00;;;;;;;20.38;11.65;;;9.50;99.90;;;;;;5065462;28;20032;-59
2022/12/25 13:02:34;;;;;;;19.17;11.05;;;9.50;99.90;;;;;;5058241;28;20046;-59
2022/12/25 13:05:06;;;;;;;17.85;11.65;;;9.40;99.90;;;;;;5060811;28;20491;-59
2022/12/25 13:07:43;;;;;;;17.08;10.73;;;9.40;99.90;;;;;;5054273;28;20048;-59
2022/12/25 13:10:24;;;;;;;21.50;11.80;;;9.50;99.90;;;;;;5057090;28;20105;-59
2022/12/25 13:12:53;;;;;;;19.13;11.43;;;9.50;99.90;;;;;;5060170;28;20045;-58
2022/12/25 13:15:25;;;;;;;16.63;10.25;;;9.50;99.90;;;;;;5058097;28;20043;-59
2022/12/25 13:17:53;;;;;;;16.73;10.20;;;9.50;99.90;;;;;;5057949;28;20048;-58
2022/12/25 13:20:28;;;;;;;16.90;9.93;;;9.50;99.90;;;;;;5055378;28;20051;-59
2022/12/25 13:22:56;;;;;;;14.93;10.05;;;9.50;99.90;;;;;;5054099;28;20044;-58
2022/12/25 13:25:23;;;;;;;18.23;11.02;;;9.50;99.90;;;;;;5054814;28;20529;-59
2022/12/25 13:27:56;;;;;;;17.60;10.30;;;9.50;99.90;;;;;;5075328;28;20249;-58
2022/12/25 13:30:23;;;;;;;21.35;10.32;;;9.50;99.90;;;;;;5073424;28;20044;-58
2022/12/25 13:32:48;;;;;;;19.60;10.63;;;9.50;99.90;;;;;;5060220;28;20090;-60
2022/12/25 13:35:16;;;;;;;18.50;10.63;;;9.50;99.90;;;;;;5050069;28;20072;-59
2022/12/25 13:37:43;;;;;;;17.52;9.93;;;9.50;99.90;;;;;;5082387;22;20501;-57
2022/12/25 13:40:26;;;;;;;16.40;9.52;;;9.50;99.90;;;;;;5077383;28;20127;-57
2022/12/25 13:42:58;;;;;;;18.17;10.90;;;9.50;99.90;;;;;;5098147;28;20119;-56
2022/12/25 13:45:26;;;;;;;17.80;11.30;;;9.50;99.90;;;;;;5096166;28;20036;-56
2022/12/25 13:47:52;;;;;;;20.02;10.88;;;9.50;99.90;;;;;;5098734;28;20042;-56
2022/12/25 13:50:28;;;;;;;18.60;11.02;;;9.50;99.90;;;;;;5104669;28;20040;-55
2022/12/25 13:52:56;;;;;;;20.45;12.73;;;9.50;99.90;;;;;;5100852;28;20046;-55
2022/12/25 13:55:28;;;;;;;17.70;10.48;;;9.50;99.90;;;;;;5097266;28;20528;-57
2022/12/25 13:57:55;;;;;;;20.75;10.63;;;9.50;99.90;;;;;;5108581;28;20036;-57
2022/12/25 14:00:26;;;;;;;15.10;10.10;;;9.50;99.90;;;;;;5097268;28;20071;-55
2022/12/25 14:02:52;;;;;;;21.65;10.65;;;9.50;99.90;;;;;;5103571;28;20062;-56
2022/12/25 14:05:24;;;;;;;18.25;11.23;;;9.50;99.90;;;;;;5102643;28;20039;-56
2022/12/25 14:07:56;;;;;;;17.55;10.45;;;9.50;99.90;;;;;;5101615;28;20406;-55
2022/12/25 14:10:27;;;;;;;18.42;11.77;;;9.50;99.90;;;;;;5085172;28;20040;-56
2022/12/25 14:12:56;;;;;;;24.65;14.15;;;9.50;99.90;;;;;;5108100;28;20048;-55
2022/12/25 14:15:23;;;;;;;20.05;12.77;;;9.50;99.90;;;;;;5109269;28;20063;-54
2022/12/25 14:17:50;;;;;;;17.17;10.88;;;9.50;99.90;;;;;;5051557;28;20083;-57
2022/12/25 14:20:26;;;;;;;20.10;10.43;;;9.50;99.90;;;;;;5103027;28;20406;-57
2022/12/25 14:22:57;;;;;;;19.05;9.93;;;9.50;99.90;;;;;;5087599;28;20455;-57
2022/12/25 14:25:34;;;;;;;22.33;11.25;;;9.50;99.90;;;;;;5082151;28;20047;-57
2022/12/25 14:28:08;;;;;;;19.63;10.80;;;9.50;99.90;;;;;;5100510;28;20035;-58
2022/12/25 14:30:35;;;;;;;23.00;10.90;;;9.50;99.90;;;;;;5103056;28;20073;-57
2022/12/25 14:33:01;;;;;;;17.52;9.95;;;9.50;99.90;;;;;;5096349;28;20036;-58
2022/12/25 14:35:27;;;;;;;18.90;9.38;;;9.50;99.90;;;;;;5089270;28;20511;-57
2022/12/25 14:37:56;;;;;;;15.10;9.85;;;9.50;99.90;;;;;;5104174;28;20079;-55
2022/12/25 14:40:30;;;;;;;13.90;9.75;;;9.50;99.90;;;;;;5072704;28;20055;-55